Brooklin, Maine
Current Conditions -  °F | °C
As of 4:15 PM on Monday 24 Nov 2014 (Local Time) from KBHB Reporting Station
Overcast Overcast  
Wind Chill: 57°   Ceiling: 400
Heat Index: 57°   Visibility: 2mi
Dew Point: 57°   Wind: 22mph
Humidity: 100%   Direction: 190°S
Pressure: 29.61"   Gusts: 35mph
Location:  44.27°N, 68.57°W
Report Text: KBHB 242115Z AUTO 19019G30KT 2SM OVC004 14/14 A2961 RMK AO1 VIS 1 1/4V3 P0002
Loading
Personal Weather Stations






























Interactive Weather Map New forecast layout! Learn more

10-Day Weather Forecast

Advertisements
Track Severe Weather on mobile